sensor_id;sensor_type;location;lat;lon;timestamp;P1;durP1;ratioP1;P2;durP2;ratioP2
18501;SDS011;68437;52.236;5.710;2023-04-01T00:01:40;32.45;;;15.18;;
18501;SDS011;68437;52.236;5.710;2023-04-01T00:04:07;34.75;;;15.57;;
18501;SDS011;68437;52.236;5.710;2023-04-01T00:06:33;34.42;;;15.48;;
18501;SDS011;68437;52.236;5.710;2023-04-01T00:09:02;32.30;;;15.48;;
18501;SDS011;68437;52.236;5.710;2023-04-01T00:11:29;36.40;;;15.63;;
18501;SDS011;68437;52.236;5.710;2023-04-01T00:13:56;36.55;;;16.27;;
18501;SDS011;68437;52.236;5.710;2023-04-01T00:16:23;31.85;;;15.15;;
18501;SDS011;68437;52.236;5.710;2023-04-01T00:18:50;35.38;;;15.88;;
18501;SDS011;68437;52.236;5.710;2023-04-01T00:21:17;38.55;;;17.83;;
18501;SDS011;68437;52.236;5.710;2023-04-01T00:23:45;42.92;;;17.48;;
18501;SDS011;68437;52.236;5.710;2023-04-01T00:26:13;49.58;;;17.45;;
18501;SDS011;68437;52.236;5.710;2023-04-01T00:28:44;48.58;;;18.33;;
18501;SDS011;68437;52.236;5.710;2023-04-01T00:31:11;51.38;;;18.63;;
18501;SDS011;68437;52.236;5.710;2023-04-01T00:33:39;43.50;;;18.05;;
18501;SDS011;68437;52.236;5.710;2023-04-01T00:36:07;45.53;;;17.92;;
18501;SDS011;68437;52.236;5.710;2023-04-01T00:38:35;46.03;;;17.85;;
18501;SDS011;68437;52.236;5.710;2023-04-01T00:41:03;50.22;;;17.90;;
18501;SDS011;68437;52.236;5.710;2023-04-01T00:43:32;45.20;;;17.90;;
18501;SDS011;68437;52.236;5.710;2023-04-01T00:45:59;51.92;;;17.85;;
18501;SDS011;68437;52.236;5.710;2023-04-01T00:48:26;49.42;;;18.13;;
18501;SDS011;68437;52.236;5.710;2023-04-01T00:50:57;46.80;;;17.73;;
18501;SDS011;68437;52.236;5.710;2023-04-01T00:53:26;44.20;;;17.52;;
18501;SDS011;68437;52.236;5.710;2023-04-01T00:55:56;45.42;;;16.92;;
18501;SDS011;68437;52.236;5.710;2023-04-01T00:58:27;53.95;;;18.92;;
18501;SDS011;68437;52.236;5.710;2023-04-01T01:00:58;51.05;;;18.42;;
18501;SDS011;68437;52.236;5.710;2023-04-01T01:03:26;51.60;;;19.42;;
18501;SDS011;68437;52.236;5.710;2023-04-01T01:06:00;51.40;;;18.77;;
18501;SDS011;68437;52.236;5.710;2023-04-01T01:11:39;53.20;;;18.92;;
18501;SDS011;68437;52.236;5.710;2023-04-01T01:14:15;53.20;;;19.02;;
18501;SDS011;68437;52.236;5.710;2023-04-01T01:16:53;52.42;;;19.05;;
18501;SDS011;68437;52.236;5.710;2023-04-01T01:19:33;49.97;;;18.08;;
18501;SDS011;68437;52.236;5.710;2023-04-01T01:22:21;53.17;;;19.38;;
18501;SDS011;68437;52.236;5.710;2023-04-01T01:25:12;64.13;;;20.67;;
18501;SDS011;68437;52.236;5.710;2023-04-01T01:27:46;53.58;;;20.15;;
18501;SDS011;68437;52.236;5.710;2023-04-01T01:30:35;58.80;;;21.33;;
18501;SDS011;68437;52.236;5.710;2023-04-01T01:36:10;62.25;;;19.35;;
18501;SDS011;68437;52.236;5.710;2023-04-01T01:38:39;58.55;;;20.92;;
18501;SDS011;68437;52.236;5.710;2023-04-01T01:41:07;59.47;;;20.02;;
18501;SDS011;68437;52.236;5.710;2023-04-01T01:43:36;60.15;;;19.27;;
18501;SDS011;68437;52.236;5.710;2023-04-01T01:46:07;59.08;;;19.33;;
18501;SDS011;68437;52.236;5.710;2023-04-01T01:48:36;54.72;;;19.35;;
18501;SDS011;68437;52.236;5.710;2023-04-01T01:51:05;61.33;;;20.08;;
18501;SDS011;68437;52.236;5.710;2023-04-01T01:53:34;61.85;;;20.40;;
18501;SDS011;68437;52.236;5.710;2023-04-01T01:56:01;57.20;;;20.40;;
18501;SDS011;68437;52.236;5.710;2023-04-01T01:58:29;61.70;;;22.42;;
18501;SDS011;68437;52.236;5.710;2023-04-01T02:01:00;67.43;;;22.70;;
18501;SDS011;68437;52.236;5.710;2023-04-01T02:03:31;68.22;;;22.75;;
18501;SDS011;68437;52.236;5.710;2023-04-01T02:06:03;67.90;;;22.25;;
18501;SDS011;68437;52.236;5.710;2023-04-01T02:08:35;60.17;;;21.85;;
18501;SDS011;68437;52.236;5.710;2023-04-01T02:11:06;62.63;;;22.40;;
18501;SDS011;68437;52.236;5.710;2023-04-01T02:13:35;64.75;;;22.92;;
18501;SDS011;68437;52.236;5.710;2023-04-01T02:16:11;67.85;;;22.00;;
18501;SDS011;68437;52.236;5.710;2023-04-01T02:18:40;62.15;;;22.02;;
18501;SDS011;68437;52.236;5.710;2023-04-01T02:21:10;69.88;;;23.50;;
18501;SDS011;68437;52.236;5.710;2023-04-01T02:23:39;64.25;;;22.85;;
18501;SDS011;68437;52.236;5.710;2023-04-01T02:26:07;60.75;;;23.23;;
18501;SDS011;68437;52.236;5.710;2023-04-01T02:28:37;61.13;;;23.83;;
18501;SDS011;68437;52.236;5.710;2023-04-01T02:31:06;63.17;;;23.98;;
18501;SDS011;68437;52.236;5.710;2023-04-01T02:33:35;56.17;;;22.85;;
18501;SDS011;68437;52.236;5.710;2023-04-01T02:36:04;52.45;;;20.23;;
18501;SDS011;68437;52.236;5.710;2023-04-01T02:38:31;52.40;;;20.35;;
18501;SDS011;68437;52.236;5.710;2023-04-01T02:41:02;49.85;;;19.52;;
18501;SDS011;68437;52.236;5.710;2023-04-01T02:43:30;43.00;;;16.98;;
18501;SDS011;68437;52.236;5.710;2023-04-01T02:45:57;45.53;;;17.75;;
18501;SDS011;68437;52.236;5.710;2023-04-01T02:48:23;43.45;;;16.83;;
18501;SDS011;68437;52.236;5.710;2023-04-01T02:50:50;45.22;;;17.77;;
18501;SDS011;68437;52.236;5.710;2023-04-01T02:53:17;44.80;;;19.05;;
18501;SDS011;68437;52.236;5.710;2023-04-01T02:55:44;38.92;;;17.73;;
18501;SDS011;68437;52.236;5.710;2023-04-01T02:58:12;39.28;;;16.95;;
18501;SDS011;68437;52.236;5.710;2023-04-01T03:00:39;39.40;;;16.85;;
18501;SDS011;68437;52.236;5.710;2023-04-01T03:03:06;35.75;;;16.40;;
18501;SDS011;68437;52.236;5.710;2023-04-01T03:05:33;34.45;;;14.63;;
18501;SDS011;68437;52.236;5.710;2023-04-01T03:08:00;33.90;;;14.80;;
18501;SDS011;68437;52.236;5.710;2023-04-01T03:10:27;30.52;;;13.40;;
18501;SDS011;68437;52.236;5.710;2023-04-01T03:12:54;35.13;;;15.30;;
18501;SDS011;68437;52.236;5.710;2023-04-01T03:15:22;30.23;;;14.73;;
18501;SDS011;68437;52.236;5.710;2023-04-01T03:17:49;33.40;;;14.77;;
18501;SDS011;68437;52.236;5.710;2023-04-01T03:20:16;28.48;;;14.75;;
18501;SDS011;68437;52.236;5.710;2023-04-01T03:22:43;31.73;;;14.73;;
18501;SDS011;68437;52.236;5.710;2023-04-01T03:25:10;32.85;;;15.25;;
18501;SDS011;68437;52.236;5.710;2023-04-01T03:27:37;28.98;;;14.50;;
18501;SDS011;68437;52.236;5.710;2023-04-01T03:30:05;32.60;;;14.52;;
18501;SDS011;68437;52.236;5.710;2023-04-01T03:32:34;32.08;;;15.13;;
18501;SDS011;68437;52.236;5.710;2023-04-01T03:35:00;31.35;;;15.23;;
18501;SDS011;68437;52.236;5.710;2023-04-01T03:37:27;30.00;;;14.35;;
18501;SDS011;68437;52.236;5.710;2023-04-01T03:39:54;26.98;;;13.80;;
18501;SDS011;68437;52.236;5.710;2023-04-01T03:42:21;33.10;;;14.30;;
18501;SDS011;68437;52.236;5.710;2023-04-01T03:44:48;28.35;;;13.23;;
18501;SDS011;68437;52.236;5.710;2023-04-01T03:47:15;29.02;;;13.57;;
18501;SDS011;68437;52.236;5.710;2023-04-01T03:49:43;30.90;;;14.00;;
18501;SDS011;68437;52.236;5.710;2023-04-01T03:52:10;29.42;;;14.05;;
18501;SDS011;68437;52.236;5.710;2023-04-01T03:54:37;31.27;;;14.10;;
18501;SDS011;68437;52.236;5.710;2023-04-01T03:57:04;30.77;;;14.27;;
18501;SDS011;68437;52.236;5.710;2023-04-01T03:59:31;29.27;;;14.10;;
18501;SDS011;68437;52.236;5.710;2023-04-01T04:01:58;33.35;;;13.98;;
18501;SDS011;68437;52.236;5.710;2023-04-01T04:04:25;32.78;;;13.98;;
18501;SDS011;68437;52.236;5.710;2023-04-01T04:06:54;29.55;;;13.85;;
18501;SDS011;68437;52.236;5.710;2023-04-01T04:09:21;26.48;;;12.57;;
18501;SDS011;68437;52.236;5.710;2023-04-01T04:11:48;32.28;;;13.85;;
18501;SDS011;68437;52.236;5.710;2023-04-01T04:14:15;31.80;;;14.25;;
18501;SDS011;68437;52.236;5.710;2023-04-01T04:16:43;30.92;;;13.90;;
18501;SDS011;68437;52.236;5.710;2023-04-01T04:19:09;30.40;;;13.38;;
18501;SDS011;68437;52.236;5.710;2023-04-01T04:21:36;33.13;;;14.60;;
18501;SDS011;68437;52.236;5.710;2023-04-01T04:24:05;31.17;;;13.50;;
18501;SDS011;68437;52.236;5.710;2023-04-01T04:26:32;37.50;;;15.02;;
18501;SDS011;68437;52.236;5.710;2023-04-01T04:28:59;33.63;;;13.65;;
18501;SDS011;68437;52.236;5.710;2023-04-01T04:31:26;37.25;;;14.55;;
18501;SDS011;68437;52.236;5.710;2023-04-01T04:33:53;34.65;;;14.07;;
18501;SDS011;68437;52.236;5.710;2023-04-01T04:36:20;34.92;;;14.07;;
18501;SDS011;68437;52.236;5.710;2023-04-01T04:38:47;32.35;;;13.45;;
18501;SDS011;68437;52.236;5.710;2023-04-01T04:41:16;35.10;;;13.48;;
18501;SDS011;68437;52.236;5.710;2023-04-01T04:43:48;33.97;;;12.50;;
18501;SDS011;68437;52.236;5.710;2023-04-01T04:46:16;33.95;;;13.13;;
18501;SDS011;68437;52.236;5.710;2023-04-01T04:48:44;33.97;;;12.52;;
18501;SDS011;68437;52.236;5.710;2023-04-01T04:51:12;37.60;;;13.10;;
18501;SDS011;68437;52.236;5.710;2023-04-01T04:53:40;37.90;;;12.93;;
18501;SDS011;68437;52.236;5.710;2023-04-01T04:56:07;38.15;;;12.23;;
18501;SDS011;68437;52.236;5.710;2023-04-01T04:58:35;35.80;;;11.98;;
18501;SDS011;68437;52.236;5.710;2023-04-01T05:01:06;36.15;;;12.18;;
18501;SDS011;68437;52.236;5.710;2023-04-01T05:03:34;41.80;;;13.15;;
18501;SDS011;68437;52.236;5.710;2023-04-01T05:06:01;45.85;;;12.50;;
18501;SDS011;68437;52.236;5.710;2023-04-01T05:08:27;40.60;;;12.35;;
18501;SDS011;68437;52.236;5.710;2023-04-01T05:10:54;41.85;;;12.43;;
18501;SDS011;68437;52.236;5.710;2023-04-01T05:13:21;42.25;;;12.15;;
18501;SDS011;68437;52.236;5.710;2023-04-01T05:15:49;44.63;;;12.75;;
18501;SDS011;68437;52.236;5.710;2023-04-01T05:18:17;46.08;;;12.73;;
18501;SDS011;68437;52.236;5.710;2023-04-01T05:20:47;49.35;;;12.35;;
18501;SDS011;68437;52.236;5.710;2023-04-01T05:23:14;50.95;;;12.52;;
18501;SDS011;68437;52.236;5.710;2023-04-01T05:25:42;49.20;;;12.13;;
18501;SDS011;68437;52.236;5.710;2023-04-01T05:28:10;51.75;;;13.18;;
18501;SDS011;68437;52.236;5.710;2023-04-01T05:30:36;45.25;;;11.52;;
18501;SDS011;68437;52.236;5.710;2023-04-01T05:33:07;55.53;;;13.38;;
18501;SDS011;68437;52.236;5.710;2023-04-01T05:35:34;51.40;;;12.65;;
18501;SDS011;68437;52.236;5.710;2023-04-01T05:38:01;52.70;;;12.52;;
18501;SDS011;68437;52.236;5.710;2023-04-01T05:40:28;58.83;;;13.73;;
18501;SDS011;68437;52.236;5.710;2023-04-01T05:42:55;55.35;;;13.75;;
18501;SDS011;68437;52.236;5.710;2023-04-01T05:45:22;54.22;;;13.45;;
18501;SDS011;68437;52.236;5.710;2023-04-01T05:47:49;54.55;;;13.20;;
18501;SDS011;68437;52.236;5.710;2023-04-01T05:50:17;65.50;;;13.93;;
18501;SDS011;68437;52.236;5.710;2023-04-01T05:52:44;62.00;;;13.25;;
18501;SDS011;68437;52.236;5.710;2023-04-01T05:55:11;57.25;;;12.82;;
18501;SDS011;68437;52.236;5.710;2023-04-01T05:57:38;63.63;;;13.55;;
18501;SDS011;68437;52.236;5.710;2023-04-01T06:00:05;58.50;;;13.32;;
18501;SDS011;68437;52.236;5.710;2023-04-01T06:02:33;56.90;;;14.43;;
18501;SDS011;68437;52.236;5.710;2023-04-01T06:05:02;58.38;;;14.02;;
18501;SDS011;68437;52.236;5.710;2023-04-01T06:07:38;59.47;;;13.60;;
18501;SDS011;68437;52.236;5.710;2023-04-01T06:10:09;56.35;;;13.63;;
18501;SDS011;68437;52.236;5.710;2023-04-01T06:12:40;60.25;;;12.93;;
18501;SDS011;68437;52.236;5.710;2023-04-01T06:15:19;56.13;;;12.98;;
18501;SDS011;68437;52.236;5.710;2023-04-01T06:17:54;58.97;;;13.77;;
18501;SDS011;68437;52.236;5.710;2023-04-01T06:20:39;68.88;;;15.13;;
18501;SDS011;68437;52.236;5.710;2023-04-01T06:23:19;56.97;;;13.68;;
18501;SDS011;68437;52.236;5.710;2023-04-01T06:26:04;68.05;;;14.13;;
18501;SDS011;68437;52.236;5.710;2023-04-01T06:28:46;64.72;;;14.98;;
18501;SDS011;68437;52.236;5.710;2023-04-01T06:31:29;68.00;;;13.52;;
18501;SDS011;68437;52.236;5.710;2023-04-01T06:34:08;69.43;;;15.05;;
18501;SDS011;68437;52.236;5.710;2023-04-01T06:37:06;61.00;;;13.60;;
18501;SDS011;68437;52.236;5.710;2023-04-01T06:39:53;62.47;;;14.40;;
18501;SDS011;68437;52.236;5.710;2023-04-01T06:42:34;64.55;;;14.55;;
18501;SDS011;68437;52.236;5.710;2023-04-01T06:45:15;65.60;;;13.93;;
18501;SDS011;68437;52.236;5.710;2023-04-01T06:47:56;71.10;;;14.27;;
18501;SDS011;68437;52.236;5.710;2023-04-01T06:50:36;62.70;;;13.75;;
18501;SDS011;68437;52.236;5.710;2023-04-01T06:53:12;61.13;;;13.88;;
18501;SDS011;68437;52.236;5.710;2023-04-01T06:55:49;56.75;;;13.43;;
18501;SDS011;68437;52.236;5.710;2023-04-01T06:58:20;61.97;;;12.63;;
18501;SDS011;68437;52.236;5.710;2023-04-01T07:00:50;67.82;;;13.98;;
18501;SDS011;68437;52.236;5.710;2023-04-01T07:03:21;65.25;;;14.73;;
18501;SDS011;68437;52.236;5.710;2023-04-01T07:05:54;65.20;;;13.52;;
18501;SDS011;68437;52.236;5.710;2023-04-01T07:08:25;60.92;;;13.18;;
18501;SDS011;68437;52.236;5.710;2023-04-01T07:10:56;58.55;;;12.82;;
18501;SDS011;68437;52.236;5.710;2023-04-01T07:13:29;49.15;;;11.90;;
18501;SDS011;68437;52.236;5.710;2023-04-01T07:16:03;47.00;;;11.45;;
18501;SDS011;68437;52.236;5.710;2023-04-01T07:18:36;45.58;;;10.90;;
18501;SDS011;68437;52.236;5.710;2023-04-01T07:21:09;44.25;;;10.75;;
18501;SDS011;68437;52.236;5.710;2023-04-01T07:23:41;36.40;;;9.80;;
18501;SDS011;68437;52.236;5.710;2023-04-01T07:26:14;44.33;;;15.15;;
18501;SDS011;68437;52.236;5.710;2023-04-01T07:28:43;37.83;;;9.90;;
18501;SDS011;68437;52.236;5.710;2023-04-01T07:31:13;39.55;;;14.30;;
18501;SDS011;68437;52.236;5.710;2023-04-01T07:33:48;35.33;;;11.57;;
18501;SDS011;68437;52.236;5.710;2023-04-01T07:36:23;34.45;;;10.65;;
18501;SDS011;68437;52.236;5.710;2023-04-01T07:38:59;36.88;;;12.45;;
18501;SDS011;68437;52.236;5.710;2023-04-01T07:41:39;21.67;;;7.70;;
18501;SDS011;68437;52.236;5.710;2023-04-01T07:44:14;16.40;;;5.40;;
18501;SDS011;68437;52.236;5.710;2023-04-01T07:46:50;19.80;;;7.88;;
18501;SDS011;68437;52.236;5.710;2023-04-01T07:49:27;12.30;;;4.78;;
18501;SDS011;68437;52.236;5.710;2023-04-01T07:52:04;8.55;;;3.17;;
18501;SDS011;68437;52.236;5.710;2023-04-01T07:54:37;11.15;;;4.45;;
18501;SDS011;68437;52.236;5.710;2023-04-01T07:57:14;11.38;;;2.67;;
18501;SDS011;68437;52.236;5.710;2023-04-01T07:59:46;12.80;;;4.63;;
18501;SDS011;68437;52.236;5.710;2023-04-01T08:02:26;7.63;;;2.60;;
18501;SDS011;68437;52.236;5.710;2023-04-01T08:05:02;6.43;;;2.92;;
18501;SDS011;68437;52.236;5.710;2023-04-01T08:07:36;7.18;;;3.17;;
18501;SDS011;68437;52.236;5.710;2023-04-01T08:10:11;8.07;;;3.53;;
18501;SDS011;68437;52.236;5.710;2023-04-01T08:12:48;9.73;;;4.55;;
18501;SDS011;68437;52.236;5.710;2023-04-01T08:15:23;4.75;;;2.30;;
18501;SDS011;68437;52.236;5.710;2023-04-01T08:17:56;8.65;;;2.90;;
18501;SDS011;68437;52.236;5.710;2023-04-01T08:20:31;7.30;;;3.15;;
18501;SDS011;68437;52.236;5.710;2023-04-01T08:23:04;7.28;;;3.03;;
18501;SDS011;68437;52.236;5.710;2023-04-01T08:25:37;5.93;;;3.03;;
18501;SDS011;68437;52.236;5.710;2023-04-01T08:28:10;7.35;;;3.13;;
18501;SDS011;68437;52.236;5.710;2023-04-01T08:30:43;7.75;;;2.92;;
18501;SDS011;68437;52.236;5.710;2023-04-01T08:33:15;7.50;;;3.00;;
18501;SDS011;68437;52.236;5.710;2023-04-01T08:35:46;7.82;;;3.42;;
18501;SDS011;68437;52.236;5.710;2023-04-01T08:38:18;6.68;;;2.97;;
18501;SDS011;68437;52.236;5.710;2023-04-01T08:40:57;7.82;;;3.25;;
18501;SDS011;68437;52.236;5.710;2023-04-01T08:43:31;11.02;;;3.95;;
18501;SDS011;68437;52.236;5.710;2023-04-01T08:46:21;11.02;;;3.85;;
18501;SDS011;68437;52.236;5.710;2023-04-01T08:49:06;11.55;;;4.35;;
18501;SDS011;68437;52.236;5.710;2023-04-01T08:51:58;10.10;;;5.13;;
18501;SDS011;68437;52.236;5.710;2023-04-01T08:57:35;14.27;;;5.10;;
18501;SDS011;68437;52.236;5.710;2023-04-01T09:00:14;16.13;;;6.32;;
18501;SDS011;68437;52.236;5.710;2023-04-01T09:02:57;15.25;;;5.32;;
18501;SDS011;68437;52.236;5.710;2023-04-01T09:09:07;13.73;;;5.47;;
18501;SDS011;68437;52.236;5.710;2023-04-01T09:11:55;13.13;;;5.30;;
18501;SDS011;68437;52.236;5.710;2023-04-01T09:14:47;14.35;;;5.20;;
18501;SDS011;68437;52.236;5.710;2023-04-01T09:17:42;13.27;;;5.28;;
18501;SDS011;68437;52.236;5.710;2023-04-01T09:20:27;13.73;;;5.60;;
18501;SDS011;68437;52.236;5.710;2023-04-01T09:23:13;11.85;;;5.35;;
18501;SDS011;68437;52.236;5.710;2023-04-01T09:25:53;13.57;;;5.80;;
18501;SDS011;68437;52.236;5.710;2023-04-01T09:28:33;10.32;;;4.68;;
18501;SDS011;68437;52.236;5.710;2023-04-01T09:31:11;11.70;;;4.90;;
18501;SDS011;68437;52.236;5.710;2023-04-01T09:36:55;6.90;;;3.60;;
18501;SDS011;68437;52.236;5.710;2023-04-01T09:39:35;6.97;;;3.03;;
18501;SDS011;68437;52.236;5.710;2023-04-01T09:42:10;7.05;;;3.35;;
18501;SDS011;68437;52.236;5.710;2023-04-01T09:44:48;8.38;;;3.50;;
18501;SDS011;68437;52.236;5.710;2023-04-01T09:47:27;6.50;;;2.85;;
18501;SDS011;68437;52.236;5.710;2023-04-01T09:50:16;4.93;;;2.70;;
18501;SDS011;68437;52.236;5.710;2023-04-01T09:53:02;4.90;;;2.47;;
18501;SDS011;68437;52.236;5.710;2023-04-01T10:02:11;5.32;;;2.95;;
18501;SDS011;68437;52.236;5.710;2023-04-01T10:08:33;5.63;;;2.83;;
18501;SDS011;68437;52.236;5.710;2023-04-01T10:11:15;4.68;;;2.13;;
18501;SDS011;68437;52.236;5.710;2023-04-01T10:20:01;9.85;;;2.65;;
18501;SDS011;68437;52.236;5.710;2023-04-01T10:26:07;6.53;;;3.47;;
18501;SDS011;68437;52.236;5.710;2023-04-01T10:29:01;6.82;;;3.30;;
18501;SDS011;68437;52.236;5.710;2023-04-01T10:31:57;6.22;;;3.50;;
18501;SDS011;68437;52.236;5.710;2023-04-01T10:34:56;6.13;;;3.15;;
18501;SDS011;68437;52.236;5.710;2023-04-01T10:38:10;6.88;;;3.60;;
18501;SDS011;68437;52.236;5.710;2023-04-01T10:41:09;7.55;;;3.70;;
18501;SDS011;68437;52.236;5.710;2023-04-01T10:43:59;7.28;;;3.70;;
18501;SDS011;68437;52.236;5.710;2023-04-01T10:50:16;9.18;;;4.32;;
18501;SDS011;68437;52.236;5.710;2023-04-01T10:56:04;8.02;;;4.40;;
18501;SDS011;68437;52.236;5.710;2023-04-01T10:58:58;9.32;;;4.90;;
18501;SDS011;68437;52.236;5.710;2023-04-01T11:01:48;8.60;;;4.53;;
18501;SDS011;68437;52.236;5.710;2023-04-01T11:11:01;10.10;;;5.20;;
18501;SDS011;68437;52.236;5.710;2023-04-01T11:13:59;9.00;;;4.38;;
18501;SDS011;68437;52.236;5.710;2023-04-01T11:17:05;9.60;;;4.40;;
18501;SDS011;68437;52.236;5.710;2023-04-01T11:20:02;10.60;;;4.50;;
18501;SDS011;68437;52.236;5.710;2023-04-01T11:22:52;9.23;;;4.97;;
18501;SDS011;68437;52.236;5.710;2023-04-01T11:25:50;12.35;;;5.10;;
18501;SDS011;68437;52.236;5.710;2023-04-01T11:28:37;11.10;;;5.18;;
18501;SDS011;68437;52.236;5.710;2023-04-01T11:31:22;9.98;;;5.05;;
18501;SDS011;68437;52.236;5.710;2023-04-01T11:34:19;9.88;;;4.72;;
18501;SDS011;68437;52.236;5.710;2023-04-01T11:36:59;11.35;;;5.20;;
18501;SDS011;68437;52.236;5.710;2023-04-01T11:39:38;11.63;;;4.75;;
18501;SDS011;68437;52.236;5.710;2023-04-01T11:42:17;12.27;;;5.38;;
18501;SDS011;68437;52.236;5.710;2023-04-01T11:44:55;10.45;;;4.88;;
18501;SDS011;68437;52.236;5.710;2023-04-01T11:50:28;9.20;;;4.47;;
18501;SDS011;68437;52.236;5.710;2023-04-01T11:53:07;10.38;;;4.88;;
18501;SDS011;68437;52.236;5.710;2023-04-01T11:55:46;11.13;;;5.55;;
18501;SDS011;68437;52.236;5.710;2023-04-01T11:58:36;15.98;;;6.68;;
18501;SDS011;68437;52.236;5.710;2023-04-01T12:01:22;15.73;;;5.85;;
18501;SDS011;68437;52.236;5.710;2023-04-01T12:06:54;12.18;;;5.72;;
18501;SDS011;68437;52.236;5.710;2023-04-01T12:09:31;12.60;;;5.68;;
18501;SDS011;68437;52.236;5.710;2023-04-01T12:12:09;13.48;;;5.97;;
18501;SDS011;68437;52.236;5.710;2023-04-01T12:14:42;13.88;;;6.00;;
18501;SDS011;68437;52.236;5.710;2023-04-01T12:17:21;13.63;;;6.10;;
18501;SDS011;68437;52.236;5.710;2023-04-01T12:19:56;13.93;;;5.90;;
18501;SDS011;68437;52.236;5.710;2023-04-01T12:22:34;13.45;;;6.10;;
18501;SDS011;68437;52.236;5.710;2023-04-01T12:25:22;13.98;;;6.38;;
18501;SDS011;68437;52.236;5.710;2023-04-01T12:28:03;13.50;;;6.50;;
18501;SDS011;68437;52.236;5.710;2023-04-01T12:36:55;14.50;;;6.55;;
18501;SDS011;68437;52.236;5.710;2023-04-01T12:39:37;13.25;;;6.15;;
18501;SDS011;68437;52.236;5.710;2023-04-01T12:42:15;14.20;;;6.40;;
18501;SDS011;68437;52.236;5.710;2023-04-01T12:45:00;16.70;;;6.75;;
18501;SDS011;68437;52.236;5.710;2023-04-01T12:47:55;12.98;;;6.35;;
18501;SDS011;68437;52.236;5.710;2023-04-01T12:50:47;16.38;;;8.13;;
18501;SDS011;68437;52.236;5.710;2023-04-01T12:53:37;13.63;;;7.00;;
18501;SDS011;68437;52.236;5.710;2023-04-01T12:56:23;14.07;;;6.47;;
18501;SDS011;68437;52.236;5.710;2023-04-01T12:59:07;13.93;;;6.35;;
18501;SDS011;68437;52.236;5.710;2023-04-01T13:01:50;16.25;;;7.57;;
18501;SDS011;68437;52.236;5.710;2023-04-01T13:07:42;20.73;;;7.45;;
18501;SDS011;68437;52.236;5.710;2023-04-01T13:10:38;15.93;;;6.70;;
18501;SDS011;68437;52.236;5.710;2023-04-01T13:13:22;20.50;;;7.55;;
18501;SDS011;68437;52.236;5.710;2023-04-01T13:16:11;17.58;;;7.70;;
18501;SDS011;68437;52.236;5.710;2023-04-01T13:18:48;19.98;;;9.15;;
18501;SDS011;68437;52.236;5.710;2023-04-01T13:21:25;21.45;;;9.70;;
18501;SDS011;68437;52.236;5.710;2023-04-01T13:24:22;17.60;;;7.88;;
18501;SDS011;68437;52.236;5.710;2023-04-01T13:26:57;18.05;;;7.78;;
18501;SDS011;68437;52.236;5.710;2023-04-01T13:29:30;21.77;;;10.55;;
18501;SDS011;68437;52.236;5.710;2023-04-01T13:32:03;22.27;;;10.93;;
18501;SDS011;68437;52.236;5.710;2023-04-01T13:34:44;31.20;;;14.23;;
18501;SDS011;68437;52.236;5.710;2023-04-01T13:37:23;20.80;;;9.27;;
18501;SDS011;68437;52.236;5.710;2023-04-01T13:40:03;21.85;;;9.50;;
18501;SDS011;68437;52.236;5.710;2023-04-01T13:42:47;20.42;;;8.55;;
18501;SDS011;68437;52.236;5.710;2023-04-01T13:45:21;24.02;;;9.57;;
18501;SDS011;68437;52.236;5.710;2023-04-01T13:47:57;23.67;;;10.25;;
18501;SDS011;68437;52.236;5.710;2023-04-01T13:50:46;26.55;;;10.52;;
18501;SDS011;68437;52.236;5.710;2023-04-01T13:53:31;25.92;;;11.45;;
18501;SDS011;68437;52.236;5.710;2023-04-01T13:56:25;19.75;;;9.45;;
18501;SDS011;68437;52.236;5.710;2023-04-01T14:02:07;24.08;;;10.68;;
18501;SDS011;68437;52.236;5.710;2023-04-01T14:04:53;23.50;;;9.65;;
18501;SDS011;68437;52.236;5.710;2023-04-01T14:07:41;21.33;;;10.32;;
18501;SDS011;68437;52.236;5.710;2023-04-01T14:10:23;22.77;;;10.50;;
18501;SDS011;68437;52.236;5.710;2023-04-01T14:13:03;21.13;;;10.25;;
18501;SDS011;68437;52.236;5.710;2023-04-01T14:15:44;21.50;;;10.63;;
18501;SDS011;68437;52.236;5.710;2023-04-01T14:18:32;21.38;;;10.50;;
18501;SDS011;68437;52.236;5.710;2023-04-01T14:21:11;22.42;;;10.95;;
18501;SDS011;68437;52.236;5.710;2023-04-01T14:23:51;24.83;;;10.27;;
18501;SDS011;68437;52.236;5.710;2023-04-01T14:29:46;19.75;;;10.07;;
18501;SDS011;68437;52.236;5.710;2023-04-01T14:32:24;23.70;;;11.30;;
18501;SDS011;68437;52.236;5.710;2023-04-01T14:35:02;20.27;;;9.98;;
18501;SDS011;68437;52.236;5.710;2023-04-01T14:37:53;24.45;;;11.60;;
18501;SDS011;68437;52.236;5.710;2023-04-01T14:40:28;26.05;;;13.65;;
18501;SDS011;68437;52.236;5.710;2023-04-01T14:43:14;22.45;;;12.05;;
18501;SDS011;68437;52.236;5.710;2023-04-01T14:46:07;23.90;;;10.85;;
18501;SDS011;68437;52.236;5.710;2023-04-01T14:48:49;23.63;;;10.93;;
18501;SDS011;68437;52.236;5.710;2023-04-01T14:51:20;22.65;;;11.27;;
18501;SDS011;68437;52.236;5.710;2023-04-01T14:53:58;20.00;;;10.05;;
18501;SDS011;68437;52.236;5.710;2023-04-01T14:56:34;23.13;;;11.32;;
18501;SDS011;68437;52.236;5.710;2023-04-01T14:59:06;19.38;;;10.30;;
18501;SDS011;68437;52.236;5.710;2023-04-01T15:01:42;17.50;;;9.50;;
18501;SDS011;68437;52.236;5.710;2023-04-01T15:07:35;18.35;;;10.02;;
18501;SDS011;68437;52.236;5.710;2023-04-01T15:10:24;19.55;;;9.13;;
18501;SDS011;68437;52.236;5.710;2023-04-01T15:13:12;15.55;;;8.90;;
18501;SDS011;68437;52.236;5.710;2023-04-01T15:15:48;17.45;;;11.27;;
18501;SDS011;68437;52.236;5.710;2023-04-01T15:18:27;15.93;;;8.00;;
18501;SDS011;68437;52.236;5.710;2023-04-01T15:21:10;20.58;;;10.65;;
18501;SDS011;68437;52.236;5.710;2023-04-01T15:23:46;19.23;;;9.75;;
18501;SDS011;68437;52.236;5.710;2023-04-01T15:26:33;18.13;;;8.57;;
18501;SDS011;68437;52.236;5.710;2023-04-01T15:32:16;17.83;;;10.15;;
18501;SDS011;68437;52.236;5.710;2023-04-01T15:34:48;16.73;;;9.15;;
18501;SDS011;68437;52.236;5.710;2023-04-01T15:37:27;15.82;;;8.27;;
18501;SDS011;68437;52.236;5.710;2023-04-01T15:40:08;15.88;;;8.27;;
18501;SDS011;68437;52.236;5.710;2023-04-01T15:42:49;19.45;;;9.73;;
18501;SDS011;68437;52.236;5.710;2023-04-01T15:45:36;16.05;;;8.90;;
18501;SDS011;68437;52.236;5.710;2023-04-01T15:51:13;15.80;;;9.13;;
18501;SDS011;68437;52.236;5.710;2023-04-01T15:56:50;17.30;;;9.18;;
18501;SDS011;68437;52.236;5.710;2023-04-01T15:59:41;22.23;;;10.20;;
18501;SDS011;68437;52.236;5.710;2023-04-01T16:02:21;21.30;;;10.02;;
18501;SDS011;68437;52.236;5.710;2023-04-01T16:04:57;20.15;;;9.95;;
18501;SDS011;68437;52.236;5.710;2023-04-01T16:07:36;19.15;;;9.50;;
18501;SDS011;68437;52.236;5.710;2023-04-01T16:10:22;17.63;;;9.18;;
18501;SDS011;68437;52.236;5.710;2023-04-01T16:13:03;13.35;;;7.47;;
18501;SDS011;68437;52.236;5.710;2023-04-01T16:15:47;19.60;;;9.73;;
18501;SDS011;68437;52.236;5.710;2023-04-01T16:18:33;15.48;;;9.38;;
18501;SDS011;68437;52.236;5.710;2023-04-01T16:21:21;18.38;;;9.95;;
18501;SDS011;68437;52.236;5.710;2023-04-01T16:24:04;21.15;;;11.85;;
18501;SDS011;68437;52.236;5.710;2023-04-01T16:26:43;19.40;;;10.50;;
18501;SDS011;68437;52.236;5.710;2023-04-01T16:29:16;18.17;;;10.48;;
18501;SDS011;68437;52.236;5.710;2023-04-01T16:31:52;28.17;;;13.23;;
18501;SDS011;68437;52.236;5.710;2023-04-01T16:34:25;19.38;;;11.30;;
18501;SDS011;68437;52.236;5.710;2023-04-01T16:36:59;20.67;;;10.57;;
18501;SDS011;68437;52.236;5.710;2023-04-01T16:39:34;21.55;;;11.38;;
18501;SDS011;68437;52.236;5.710;2023-04-01T16:45:15;20.38;;;11.63;;